Time;durP1;ratioP1;P1;durP2;ratioP2;P2;SDS_P1;SDS_P2;PMS_P1;PMS_P2;Temp;Humidity;BMP_temperature;BMP_pressure;BME280_temperature;BME280_humidity;BME280_pressure;Samples;Min_cycle;Max_cycle;Signal;HPM_P1;HPM_P2
2022/10/11 00:01:45;;;;;;;;;0.00;0.00;;;;;8.55;74.65;100633.56;5098872;28;8848;-61
2022/10/11 00:04:13;;;;;;;;;0.00;0.00;;;;;8.50;75.01;100636.50;5098904;28;9992;-61
2022/10/11 00:06:42;;;;;;;;;1.00;1.00;;;;;8.49;75.04;100639.22;5098374;28;8830;-60
2022/10/11 00:09:10;;;;;;;;;0.00;0.00;;;;;8.47;74.93;100646.44;5098432;28;8890;-61
2022/10/11 00:11:38;;;;;;;;;0.00;0.00;;;;;8.43;75.12;100632.50;5098400;28;8838;-60
2022/10/11 00:14:05;;;;;;;;;0.00;0.00;;;;;8.41;74.64;100646.78;5098813;28;8903;-61
2022/10/11 00:16:33;;;;;;;;;0.00;0.00;;;;;8.41;74.72;100646.78;5098793;28;8885;-59
2022/10/11 00:19:01;;;;;;;;;1.00;1.00;;;;;8.40;74.67;100648.63;5098461;28;8806;-60
2022/10/11 00:21:29;;;;;;;;;0.00;0.00;;;;;8.43;74.78;100644.94;5098823;28;8822;-60
2022/10/11 00:23:57;;;;;;;;;0.00;0.00;;;;;8.47;75.22;100651.75;5098471;28;8822;-61
2022/10/11 00:26:24;;;;;;;;;0.00;0.00;;;;;8.54;74.59;100656.63;5098456;28;8826;-61
2022/10/11 00:28:52;;;;;;;;;1.00;0.00;;;;;8.60;73.83;100658.88;5097694;28;8892;-60
2022/10/11 00:31:20;;;;;;;;;0.00;0.00;;;;;8.67;74.20;100657.56;5097979;28;8898;-62
2022/10/11 00:33:48;;;;;;;;;0.00;0.00;;;;;8.75;73.76;100665.06;5098491;28;8973;-61
2022/10/11 00:36:16;;;;;;;;;2.00;1.50;;;;;8.82;74.11;100664.59;5097910;28;8842;-61
2022/10/11 00:38:43;;;;;;;;;1.00;1.00;;;;;8.88;73.32;100669.53;5098051;28;8850;-60
2022/10/11 00:41:11;;;;;;;;;0.00;0.00;;;;;8.94;73.75;100663.84;5097943;28;8826;-60
2022/10/11 00:43:39;;;;;;;;;0.00;0.00;;;;;8.97;72.92;100671.63;5097864;28;8810;-60
2022/10/11 00:46:06;;;;;;;;;1.00;1.00;;;;;8.99;73.67;100671.53;5097174;28;8841;-62
2022/10/11 00:48:35;;;;;;;;;1.00;1.00;;;;;9.03;73.65;100670.41;5096694;28;8842;-60
2022/10/11 00:51:02;;;;;;;;;1.00;0.75;;;;;9.06;73.43;100675.53;5096725;28;8915;-60
2022/10/11 00:53:30;;;;;;;;;1.50;0.25;;;;;9.10;73.32;100677.03;5097081;28;8826;-61
2022/10/11 00:55:58;;;;;;;;;1.50;0.50;;;;;9.14;73.27;100676.78;5096940;28;8825;-59
2022/10/11 00:58:26;;;;;;;;;1.00;1.00;;;;;9.18;73.17;100678.28;5096517;28;8822;-60
2022/10/11 01:00:54;;;;;;;;;0.25;0.25;;;;;9.21;72.91;100677.25;5097518;28;8850;-61
2022/10/11 01:03:21;;;;;;;;;2.00;2.00;;;;;9.16;73.15;100676.66;5097378;28;8848;-60
2022/10/11 01:05:49;;;;;;;;;0.50;0.50;;;;;9.11;73.20;100674.28;5097746;28;8918;-61
2022/10/11 01:08:17;;;;;;;;;0.00;0.00;;;;;9.05;73.29;100676.47;5097549;28;8910;-61
2022/10/11 01:10:44;;;;;;;;;0.00;0.00;;;;;8.96;73.38;100675.22;5097149;28;8899;-59
2022/10/11 01:13:12;;;;;;;;;0.00;0.00;;;;;8.89;73.85;100675.72;5097597;28;9532;-59
2022/10/11 01:15:40;;;;;;;;;1.00;1.00;;;;;8.81;73.56;100676.16;5097487;28;8870;-61
2022/10/11 01:18:07;;;;;;;;;0.00;0.00;;;;;8.75;74.15;100675.69;5097429;28;8822;-61
2022/10/11 01:20:35;;;;;;;;;0.00;0.00;;;;;8.66;74.56;100673.59;5097394;28;8833;-62
2022/10/11 01:23:03;;;;;;;;;0.00;0.00;;;;;8.60;74.13;100684.59;5097506;28;8822;-59
2022/10/11 01:25:31;;;;;;;;;1.00;1.00;;;;;8.55;74.35;100684.88;5096823;28;8826;-62
2022/10/11 01:27:59;;;;;;;;;3.00;3.00;;;;;8.52;74.14;100686.84;5097331;28;8863;-59
2022/10/11 01:30:27;;;;;;;;;0.00;0.00;;;;;8.51;74.28;100687.78;5096977;28;8891;-59
2022/10/11 01:32:54;;;;;;;;;0.00;0.00;;;;;8.50;74.41;100678.13;5096386;28;8830;-60
2022/10/11 01:35:22;;;;;;;;;3.00;2.00;;;;;8.47;74.38;100684.47;5096852;28;8842;-59
2022/10/11 01:37:50;;;;;;;;;0.25;0.25;;;;;8.47;74.39;100695.06;5096769;28;8884;-59
2022/10/11 01:40:17;;;;;;;;;1.00;1.00;;;;;8.48;74.46;100694.13;5096484;28;8826;-59
2022/10/11 01:42:45;;;;;;;;;0.50;0.50;;;;;8.47;74.71;100689.78;5096913;28;8814;-59
2022/10/11 01:45:14;;;;;;;;;0.75;0.50;;;;;8.45;74.78;100696.94;5096965;28;8926;-60
2022/10/11 01:47:44;;;;;;;;;0.25;0.25;;;;;8.42;74.53;100693.63;5096837;28;8850;-60
2022/10/11 01:50:12;;;;;;;;;0.00;0.00;;;;;8.39;74.61;100699.97;5096874;28;8899;-59
2022/10/11 01:52:39;;;;;;;;;0.75;0.75;;;;;8.38;74.60;100692.94;5096411;28;8918;-60
2022/10/11 01:55:07;;;;;;;;;2.50;1.00;;;;;8.38;74.40;100690.28;5096695;28;8818;-59
2022/10/11 01:57:37;;;;;;;;;3.00;3.00;;;;;8.39;74.37;100689.38;5096142;28;8814;-59
2022/10/11 02:00:04;;;;;;;;;1.00;1.00;;;;;8.39;74.51;100692.03;5096559;28;8891;-60
2022/10/11 02:02:32;;;;;;;;;1.00;1.00;;;;;8.38;74.43;100695.59;5096625;28;8834;-60
2022/10/11 02:05:00;;;;;;;;;3.00;1.00;;;;;8.34;74.56;100688.78;5096211;28;8818;-60
2022/10/11 02:07:28;;;;;;;;;3.00;2.00;;;;;8.30;74.81;100692.53;5095532;28;8822;-60
2022/10/11 02:09:56;;;;;;;;;1.00;1.00;;;;;8.29;74.53;100696.13;5095730;28;8833;-60
2022/10/11 02:12:24;;;;;;;;;1.00;1.00;;;;;8.27;74.85;100698.03;5095789;28;8826;-59
2022/10/11 02:14:52;;;;;;;;;0.00;0.00;;;;;8.24;74.63;100694.69;5096212;28;8914;-60
2022/10/11 02:17:19;;;;;;;;;1.00;1.00;;;;;8.21;74.99;100694.88;5096041;28;9616;-60
2022/10/11 02:19:47;;;;;;;;;1.00;1.00;;;;;8.22;75.06;100700.09;5095655;28;8838;-60
2022/10/11 02:22:15;;;;;;;;;1.00;1.00;;;;;8.24;74.57;100698.22;5095641;28;9508;-60
2022/10/11 02:24:43;;;;;;;;;1.50;1.50;;;;;8.23;74.70;100701.81;5095769;28;8825;-59
2022/10/11 02:27:10;;;;;;;;;1.00;1.00;;;;;8.23;74.77;100701.81;5095601;28;8822;-62
2022/10/11 02:29:38;;;;;;;;;1.00;1.00;;;;;8.20;74.65;100703.81;5096024;28;8826;-62
2022/10/11 02:32:06;;;;;;;;;1.00;1.00;;;;;8.16;74.71;100708.41;5096223;28;8826;-61
2022/10/11 02:34:33;;;;;;;;;3.00;1.00;;;;;8.10;74.77;100711.38;5095625;28;8822;-62
2022/10/11 02:37:01;;;;;;;;;1.50;1.00;;;;;8.04;74.95;100702.91;5096137;28;8826;-61
2022/10/11 02:39:28;;;;;;;;;1.00;1.00;;;;;7.98;74.87;100703.28;5096168;28;8819;-62
2022/10/11 02:41:56;;;;;;;;;0.00;0.00;;;;;7.94;75.50;100707.91;5096368;28;8834;-62
2022/10/11 02:44:24;;;;;;;;;0.50;0.50;;;;;7.89;75.14;100707.31;5096203;28;8822;-62
2022/10/11 02:46:51;;;;;;;;;0.00;0.00;;;;;7.85;75.30;100712.88;5096353;28;8834;-59
2022/10/11 02:49:19;;;;;;;;;0.00;0.00;;;;;7.82;75.22;100713.88;5096304;28;8818;-60
2022/10/11 02:51:48;;;;;;;;;0.50;0.50;;;;;7.80;75.32;100710.47;5095893;28;8818;-62
2022/10/11 02:54:15;;;;;;;;;0.25;0.25;;;;;7.79;75.40;100711.41;5095954;28;8834;-62
2022/10/11 02:56:43;;;;;;;;;1.00;1.00;;;;;7.78;75.05;100712.38;5095807;28;9523;-60
2022/10/11 02:59:11;;;;;;;;;1.00;0.50;;;;;7.77;75.24;100712.44;5087393;28;8838;-60
2022/10/11 03:01:39;;;;;;;;;2.20;2.20;;;;;7.75;75.02;100717.81;5095674;28;8822;-59
2022/10/11 03:04:07;;;;;;;;;0.00;0.00;;;;;7.73;75.07;100717.06;5095776;28;8834;-59
2022/10/11 03:06:34;;;;;;;;;3.00;2.50;;;;;7.72;75.40;100718.94;5096122;28;8814;-61
2022/10/11 03:09:02;;;;;;;;;1.00;1.00;;;;;7.68;74.84;100720.91;5095685;28;8848;-61
2022/10/11 03:11:29;;;;;;;;;1.00;1.00;;;;;7.64;75.03;100729.97;5095632;28;8906;-61
2022/10/11 03:13:58;;;;;;;;;3.40;2.60;;;;;7.59;75.23;100732.00;5095978;28;8899;-61
2022/10/11 03:16:25;;;;;;;;;0.00;0.00;;;;;7.54;75.51;100730.53;5095694;28;8877;-61
2022/10/11 03:18:53;;;;;;;;;0.60;0.60;;;;;7.50;75.52;100729.84;5095623;28;8818;-61
2022/10/11 03:21:21;;;;;;;;;1.00;1.00;;;;;7.48;75.31;100741.47;5095523;28;8833;-62
2022/10/11 03:23:48;;;;;;;;;2.20;1.80;;;;;7.44;75.53;100740.78;5095476;28;9513;-62
2022/10/11 03:26:16;;;;;;;;;3.00;3.00;;;;;7.41;75.69;100738.31;5095548;28;8845;-62
2022/10/11 03:28:43;;;;;;;;;4.00;4.00;;;;;7.37;75.63;100739.44;5094630;28;8841;-62
2022/10/11 03:31:11;;;;;;;;;1.80;1.80;;;;;7.35;75.46;100745.75;5095227;28;8833;-62
2022/10/11 03:33:39;;;;;;;;;1.00;1.00;;;;;7.34;75.45;100746.69;5095117;28;8838;-61
2022/10/11 03:36:08;;;;;;;;;1.00;1.00;;;;;7.34;76.08;100751.97;5097979;28;8849;-62
2022/10/11 03:38:36;;;;;;;;;1.40;1.40;;;;;7.37;75.24;100751.81;5099407;28;8865;-60
2022/10/11 03:41:03;;;;;;;;;3.80;3.00;;;;;7.41;75.28;100761.28;5099418;28;8814;-60
2022/10/11 03:43:31;;;;;;;;;1.40;1.40;;;;;7.45;75.47;100754.91;5098807;28;8822;-62
2022/10/11 03:45:58;;;;;;;;;1.00;1.00;;;;;7.48;75.41;100763.53;5098859;28;8930;-62
2022/10/11 03:48:26;;;;;;;;;1.00;1.00;;;;;7.49;74.80;100764.41;5098887;28;8866;-60
2022/10/11 03:50:54;;;;;;;;;1.00;1.00;;;;;7.48;74.78;100762.66;5098846;28;8846;-60
2022/10/11 03:53:22;;;;;;;;;1.00;1.00;;;;;7.46;75.09;100762.78;5099074;28;9531;-61
2022/10/11 03:55:49;;;;;;;;;1.40;0.80;;;;;7.43;74.72;100770.88;5099040;28;8898;-62
2022/10/11 03:58:17;;;;;;;;;3.00;3.00;;;;;7.39;74.99;100777.28;5098123;28;8828;-61
2022/10/11 04:00:45;;;;;;;;;0.60;0.60;;;;;7.37;74.87;100781.81;5097690;28;8826;-59
2022/10/11 04:03:13;;;;;;;;;1.80;1.00;;;;;7.35;75.28;100774.88;5097702;28;9585;-62
2022/10/11 04:05:41;;;;;;;;;3.00;3.00;;;;;7.33;74.99;100779.38;5097920;28;8932;-62
2022/10/11 04:08:08;;;;;;;;;3.00;1.80;;;;;7.31;75.60;100776.84;5097672;28;8825;-61
2022/10/11 04:10:38;;;;;;;;;2.20;2.20;;;;;7.32;75.28;100790.91;5098037;28;8857;-61
2022/10/11 04:13:06;;;;;;;;;3.20;3.00;;;;;7.31;75.06;100782.13;5098483;28;8834;-60
2022/10/11 04:15:34;;;;;;;;;3.80;1.80;;;;;7.30;74.95;100790.16;5098501;28;8915;-61
2022/10/11 04:18:01;;;;;;;;;2.60;1.00;;;;;7.31;75.16;100794.50;5098664;28;8837;-61
2022/10/11 04:20:29;;;;;;;;;2.80;2.80;;;;;7.30;75.18;100793.66;5098296;28;8908;-62
2022/10/11 04:22:57;;;;;;;;;3.00;2.60;;;;;7.30;74.92;100798.97;5098240;28;8826;-59
2022/10/11 04:25:25;;;;;;;;;6.00;6.00;;;;;7.29;75.10;100801.69;5098332;28;8902;-61
2022/10/11 04:27:52;;;;;;;;;3.25;3.00;;;;;7.30;75.33;100796.31;5097690;28;8810;-61
2022/10/11 04:30:20;;;;;;;;;1.00;1.00;;;;;7.31;74.87;100798.03;5097695;28;8810;-60
2022/10/11 04:32:48;;;;;;;;;1.40;1.00;;;;;7.32;75.07;100801.50;5098276;28;8834;-59
2022/10/11 04:35:15;;;;;;;;;3.20;3.00;;;;;7.29;75.00;100804.34;5097796;28;8922;-60
2022/10/11 04:37:43;;;;;;;;;3.00;3.00;;;;;7.26;75.23;100800.06;5097869;28;8918;-60
2022/10/11 04:40:11;;;;;;;;;6.00;3.80;;;;;7.20;74.90;100810.97;5097981;28;8914;-61
2022/10/11 04:42:38;;;;;;;;;1.00;1.00;;;;;7.14;75.36;100813.09;5097907;28;8891;-62
2022/10/11 04:45:06;;;;;;;;;2.20;2.20;;;;;7.06;75.46;100813.47;5097394;28;8830;-61
2022/10/11 04:47:34;;;;;;;;;1.00;1.00;;;;;7.00;75.79;100815.56;5097703;28;8913;-62
2022/10/11 04:50:01;;;;;;;;;2.20;1.40;;;;;6.94;75.85;100819.41;5097888;28;8829;-61
2022/10/11 04:52:29;;;;;;;;;1.80;0.80;;;;;6.88;75.83;100811.75;5097693;28;8807;-61
2022/10/11 04:54:57;;;;;;;;;1.00;1.00;;;;;6.84;75.79;100818.13;5098103;28;9520;-61
2022/10/11 04:57:24;;;;;;;;;1.00;1.00;;;;;6.79;75.38;100819.31;5097067;28;8814;-60
2022/10/11 04:59:52;;;;;;;;;1.00;1.00;;;;;6.74;75.58;100826.63;5095607;28;8828;-60
2022/10/11 05:02:21;;;;;;;;;1.00;1.00;;;;;6.70;76.27;100822.41;5096484;28;9740;-61
2022/10/11 05:04:50;;;;;;;;;0.00;0.00;;;;;6.67;76.05;100823.41;5096566;28;8814;-61
2022/10/11 05:07:17;;;;;;;;;4.00;3.00;;;;;6.64;75.64;100820.94;5096619;28;8830;-61
2022/10/11 05:09:45;;;;;;;;;0.00;0.00;;;;;6.59;76.24;100822.94;5096756;28;8930;-61
2022/10/11 05:12:12;;;;;;;;;2.20;1.80;;;;;6.55;75.81;100826.69;5096726;28;8826;-60
2022/10/11 05:14:40;;;;;;;;;2.20;2.20;;;;;6.50;76.46;100823.41;5096783;28;8938;-61
2022/10/11 05:17:08;;;;;;;;;4.80;2.60;;;;;6.47;75.88;100825.34;5096897;28;8842;-61
2022/10/11 05:19:35;;;;;;;;;3.60;3.60;;;;;6.45;76.16;100827.22;5096597;28;8918;-61
2022/10/11 05:22:03;;;;;;;;;3.00;3.00;;;;;6.43;76.39;100826.41;5096591;28;8906;-61
2022/10/11 05:24:31;;;;;;;;;2.00;1.40;;;;;6.42;75.93;100830.84;5096197;28;8818;-61
2022/10/11 05:26:59;;;;;;;;;0.80;0.60;;;;;6.38;76.42;100829.28;5096202;28;8818;-60
2022/10/11 05:29:30;;;;;;;;;2.20;2.20;;;;;6.37;75.87;100837.31;5096475;28;8826;-60
2022/10/11 05:31:57;;;;;;;;;3.00;3.00;;;;;6.32;76.58;100837.53;5095984;28;8845;-61
2022/10/11 05:34:25;;;;;;;;;1.00;1.00;;;;;6.29;76.12;100839.47;5096541;28;8838;-61
2022/10/11 05:36:52;;;;;;;;;3.20;3.20;;;;;6.28;75.85;100841.25;5096338;28;8826;-60
2022/10/11 05:39:20;;;;;;;;;3.60;2.60;;;;;6.30;76.37;100851.75;5096215;28;8829;-61
2022/10/11 05:41:48;;;;;;;;;0.00;0.00;;;;;6.32;75.97;100850.75;5096316;28;8814;-61
2022/10/11 05:44:15;;;;;;;;;3.00;3.00;;;;;6.34;76.28;100848.00;5095937;28;8842;-61
2022/10/11 05:46:43;;;;;;;;;1.00;0.00;;;;;6.36;76.46;100847.03;5095948;28;8827;-59
2022/10/11 05:49:11;;;;;;;;;6.00;3.00;;;;;6.36;75.67;100854.13;5095421;28;8838;-61
2022/10/11 05:51:38;;;;;;;;;3.80;3.80;;;;;6.34;75.50;100862.13;5095521;28;8834;-62
2022/10/11 05:54:06;;;;;;;;;3.00;3.00;;;;;6.33;76.08;100863.03;5094663;28;8830;-61
2022/10/11 05:56:34;;;;;;;;;3.00;3.00;;;;;6.32;76.02;100857.81;5094155;28;8822;-60
2022/10/11 05:59:01;;;;;;;;;3.00;1.80;;;;;6.31;75.95;100858.75;5093717;28;8930;-59
2022/10/11 06:01:29;;;;;;;;;1.80;1.80;;;;;6.30;75.79;100865.81;5093795;28;8866;-59
2022/10/11 06:03:57;;;;;;;;;1.40;1.40;;;;;6.29;76.13;100866.75;5094580;28;8822;-61
2022/10/11 06:06:25;;;;;;;;;1.00;1.00;;;;;6.28;75.87;100864.16;5095566;28;8826;-62
2022/10/11 06:08:53;;;;;;;;;2.20;2.20;;;;;6.25;75.78;100866.97;5095651;28;8826;-61
2022/10/11 06:11:20;;;;;;;;;3.00;3.00;;;;;6.25;75.60;100872.25;5095028;28;8845;-60
2022/10/11 06:13:48;;;;;;;;;2.20;2.20;;;;;6.25;75.47;100877.53;5095381;28;8861;-59
2022/10/11 06:16:16;;;;;;;;;3.00;3.00;;;;;6.25;76.20;100882.84;5094581;28;8907;-59
2022/10/11 06:18:44;;;;;;;;;1.80;1.80;;;;;6.25;76.23;100881.06;5095104;28;8858;-60
2022/10/11 06:21:11;;;;;;;;;2.20;2.20;;;;;6.27;75.40;100886.25;5095036;28;8830;-60
2022/10/11 06:23:39;;;;;;;;;7.00;3.20;;;;;6.28;75.18;100880.91;5094845;28;8886;-61
2022/10/11 06:26:07;;;;;;;;;3.00;3.00;;;;;6.31;75.64;100886.03;5094700;28;8830;-59
2022/10/11 06:28:37;;;;;;;;;0.00;0.00;;;;;6.37;75.76;100887.56;5095112;28;9758;-59
2022/10/11 06:31:05;;;;;;;;;3.20;2.60;;;;;6.39;75.37;100896.28;5095029;28;8834;-59
2022/10/11 06:33:32;;;;;;;;;4.00;4.00;;;;;6.43;75.81;100887.25;5094597;28;8826;-59
2022/10/11 06:36:00;;;;;;;;;4.00;4.00;;;;;6.45;75.07;100893.34;5094406;28;8903;-59
2022/10/11 06:38:28;;;;;;;;;6.00;6.00;;;;;6.49;75.00;100898.41;5093571;28;8930;-59
2022/10/11 06:40:56;;;;;;;;;12.20;10.80;;;;;6.55;74.90;100905.19;5092629;28;8845;-60
2022/10/11 06:43:24;;;;;;;;;9.00;8.60;;;;;6.61;75.23;100896.97;5093280;28;8822;-59
2022/10/11 06:45:52;;;;;;;;;5.60;5.60;;;;;6.67;75.13;100901.97;5093605;28;8842;-60
2022/10/11 06:48:19;;;;;;;;;4.40;3.60;;;;;6.71;74.72;100900.88;5093736;28;8838;-61
2022/10/11 06:50:47;;;;;;;;;6.80;6.60;;;;;6.76;74.39;100909.47;5093907;28;8837;-59
2022/10/11 06:53:27;;;;;;;;;1.00;1.00;;;;;6.89;74.79;100910.56;5093713;28;8857;-61
2022/10/11 06:55:55;;;;;;;;;4.00;2.40;;;;;6.94;74.37;100914.72;5092757;28;8838;-59
2022/10/11 06:58:22;;;;;;;;;3.40;3.40;;;;;7.03;74.28;100919.53;5085097;28;8825;-60
2022/10/11 07:00:50;;;;;;;;;1.40;1.40;;;;;7.14;74.24;100916.38;5093167;28;8830;-59
2022/10/11 07:03:18;;;;;;;;;2.20;1.00;;;;;7.17;73.96;100925.00;5092821;28;8821;-61
2022/10/11 07:05:46;;;;;;;;;4.40;2.20;;;;;7.23;74.03;100921.19;5092985;28;8866;-59
2022/10/11 07:08:14;;;;;;;;;3.00;3.00;;;;;7.24;74.02;100928.19;5093553;28;8836;-59
2022/10/11 07:10:41;;;;;;;;;1.80;1.40;;;;;7.27;73.59;100928.91;5097587;28;8837;-61
2022/10/11 07:13:09;;;;;;;;;1.80;1.00;;;;;7.33;74.12;100933.91;5098623;28;9525;-60
2022/10/11 07:15:43;;;;;;;;;1.00;1.00;;;;;7.41;73.59;100930.84;5098436;28;8872;-60
2022/10/11 07:18:11;;;;;;;;;1.50;1.50;;;;;7.49;73.54;100936.66;5098725;28;8841;-60
2022/10/11 07:20:39;;;;;;;;;1.00;1.00;;;;;7.53;73.51;100938.19;5098461;28;8859;-59
2022/10/11 07:23:06;;;;;;;;;3.40;3.40;;;;;7.55;73.67;100938.94;5097730;28;9569;-63
2022/10/11 07:25:34;;;;;;;;;3.00;2.20;;;;;7.59;73.59;100941.38;5097285;28;8920;-60
2022/10/11 07:28:02;;;;;;;;;0.25;0.25;;;;;7.68;73.59;100938.25;5096471;28;8835;-59
2022/10/11 07:30:30;;;;;;;;;2.50;2.50;;;;;7.86;73.23;100942.59;5096621;28;8842;-60
2022/10/11 07:32:59;;;;;;;;;1.50;1.00;;;;;8.11;72.63;100948.28;5095428;28;8833;-59
2022/10/11 07:35:26;;;;;;;;;3.00;2.50;;;;;8.34;72.37;100942.63;5095486;28;8872;-60
2022/10/11 07:37:54;;;;;;;;;1.00;1.00;;;;;8.59;72.40;100943.88;5095508;28;8921;-59
2022/10/11 07:40:22;;;;;;;;;4.00;4.00;;;;;8.78;71.87;100943.69;5095086;28;8833;-59
2022/10/11 07:42:50;;;;;;;;;4.00;4.00;;;;;8.90;71.61;100941.19;5095373;28;8845;-59
2022/10/11 07:45:18;;;;;;;;;1.00;0.75;;;;;9.04;71.39;100938.63;5096051;28;8842;-61
2022/10/11 07:47:46;;;;;;;;;1.50;1.00;;;;;9.18;71.20;100935.19;5096909;28;8976;-61
2022/10/11 07:50:14;;;;;;;;;3.00;3.00;;;;;9.34;71.21;100942.16;5097220;28;9561;-61
2022/10/11 07:52:41;;;;;;;;;6.00;6.00;;;;;9.48;71.02;100939.53;5096316;28;8817;-59
2022/10/11 07:55:10;;;;;;;;;3.75;3.75;;;;;9.62;70.77;100936.06;5097210;28;8888;-61
2022/10/11 07:57:38;;;;;;;;;3.00;3.00;;;;;9.75;70.12;100939.69;5096990;28;8818;-59
2022/10/11 08:00:06;;;;;;;;;4.00;3.50;;;;;9.83;70.38;100942.75;5097140;28;8853;-59
2022/10/11 08:02:34;;;;;;;;;4.00;4.00;;;;;9.90;70.29;100938.75;5096746;28;8871;-60
2022/10/11 08:05:02;;;;;;;;;4.50;4.50;;;;;9.96;70.10;100936.56;5096294;28;8833;-60
2022/10/11 08:07:30;;;;;;;;;4.75;3.75;;;;;10.04;69.82;100936.16;5096283;28;8989;-62
2022/10/11 08:09:58;;;;;;;;;4.00;3.75;;;;;10.09;70.15;100942.91;5095836;28;8837;-61
2022/10/11 08:12:26;;;;;;;;;3.50;3.50;;;;;10.17;69.99;100947.75;5096019;28;8841;-61
2022/10/11 08:14:54;;;;;;;;;5.25;4.00;;;;;10.27;70.08;100943.56;5096316;28;8941;-60
2022/10/11 08:17:22;;;;;;;;;6.00;4.00;;;;;10.37;69.79;100948.22;5097215;28;9504;-61
2022/10/11 08:19:50;;;;;;;;;3.50;3.25;;;;;10.48;69.65;100952.88;5097126;28;8873;-61
2022/10/11 08:22:19;;;;;;;;;5.00;5.00;;;;;10.64;69.37;100953.63;5096155;28;8818;-59
2022/10/11 08:24:47;;;;;;;;;3.75;3.00;;;;;10.82;69.02;100949.75;5097405;28;8825;-59
2022/10/11 08:27:15;;;;;;;;;5.75;4.50;;;;;11.07;68.96;100948.06;5096585;28;8838;-60
2022/10/11 08:29:42;;;;;;;;;4.50;4.50;;;;;11.34;68.00;100954.25;5096119;28;8833;-59
2022/10/11 08:32:11;;;;;;;;;6.75;6.00;;;;;11.61;67.97;100949.75;5095480;28;8850;-60
2022/10/11 08:34:39;;;;;;;;;6.50;3.75;;;;;11.86;67.46;100946.28;5095926;28;9547;-60
2022/10/11 08:37:08;;;;;;;;;6.00;6.00;;;;;12.07;67.43;100946.50;5095277;28;8853;-60
2022/10/11 08:39:35;;;;;;;;;4.00;3.75;;;;;12.21;66.89;100948.19;5095408;28;8825;-60
2022/10/11 08:42:03;;;;;;;;;6.00;4.50;;;;;12.32;66.89;100953.66;5094989;28;8986;-59
2022/10/11 08:44:31;;;;;;;;;4.00;4.00;;;;;12.41;67.07;100950.31;5094232;28;8915;-59
2022/10/11 08:47:19;;;;;;;;;6.00;6.00;;;;;12.50;66.44;100952.31;5094422;28;9527;-59
2022/10/11 08:49:47;;;;;;;;;0.00;0.00;;;;;12.53;66.38;100954.81;5094448;28;9536;-60
2022/10/11 08:52:15;;;;;;;;;5.50;4.00;;;;;12.53;66.38;100946.78;5094687;28;8841;-59
2022/10/11 08:54:43;;;;;;;;;7.00;6.25;;;;;12.52;66.82;100956.59;5094849;28;8838;-59
2022/10/11 08:57:12;;;;;;;;;6.75;5.75;;;;;12.56;66.68;100946.56;5093991;28;8849;-60
2022/10/11 08:59:40;;;;;;;;;3.00;3.00;;;;;12.66;66.40;100950.25;5094231;28;8856;-59
2022/10/11 09:02:08;;;;;;;;;4.00;4.00;;;;;12.78;66.54;100952.06;5093184;28;8814;-59
2022/10/11 09:04:35;;;;;;;;;7.00;4.00;;;;;12.88;66.38;100945.06;5093896;28;8834;-60
2022/10/11 09:07:04;;;;;;;;;7.75;7.75;;;;;12.91;66.42;100950.22;5094181;28;8865;-60
2022/10/11 09:09:33;;;;;;;;;6.00;6.00;;;;;12.94;66.42;100942.84;5094371;28;8826;-60
2022/10/11 09:12:00;;;;;;;;;6.00;6.00;;;;;12.97;65.74;100939.94;5093539;28;9467;-59
2022/10/11 09:14:28;;;;;;;;;5.50;5.00;;;;;13.04;66.33;100943.00;5092924;28;8853;-59
2022/10/11 09:16:56;;;;;;;;;7.00;7.00;;;;;13.09;66.20;100936.38;5094704;28;8962;-60
2022/10/11 09:19:24;;;;;;;;;4.00;4.00;;;;;13.16;66.24;100936.78;5093981;28;8972;-59
2022/10/11 09:21:52;;;;;;;;;7.00;6.00;;;;;13.26;65.67;100943.13;5094874;28;8976;-59
2022/10/11 09:24:20;;;;;;;;;4.00;4.00;;;;;13.31;65.75;100941.84;5094827;28;8916;-59
2022/10/11 09:26:47;;;;;;;;;3.50;3.50;;;;;13.36;65.96;100946.84;5094210;28;8826;-59
2022/10/11 09:29:15;;;;;;;;;5.00;5.00;;;;;13.43;65.51;100943.56;5094687;28;8952;-60
2022/10/11 09:31:43;;;;;;;;;5.00;4.00;;;;;13.50;65.86;100946.63;5094189;28;8830;-60
2022/10/11 09:34:12;;;;;;;;;6.50;6.00;;;;;13.60;65.21;100943.13;5093900;28;8849;-59
2022/10/11 09:36:40;;;;;;;;;6.25;5.50;;;;;13.71;65.81;100945.00;5093664;28;8881;-59
2022/10/11 09:39:08;;;;;;;;;3.00;3.00;;;;;13.81;65.00;100951.38;5093480;28;8976;-60
2022/10/11 09:41:35;;;;;;;;;1.00;1.00;;;;;13.94;65.00;100949.44;5093645;28;8834;-59
2022/10/11 09:44:03;;;;;;;;;3.50;3.00;;;;;14.10;64.83;100942.78;5093636;28;9753;-59
2022/10/11 09:46:31;;;;;;;;;4.00;4.00;;;;;14.29;64.44;100934.19;5093342;28;9016;-59
2022/10/11 09:48:59;;;;;;;;;2.75;2.75;;;;;14.43;64.20;100942.00;5092932;28;8852;-59
2022/10/11 09:51:27;;;;;;;;;4.00;3.00;;;;;14.62;63.78;100940.41;5092316;28;8818;-59
2022/10/11 09:53:55;;;;;;;;;6.00;1.00;;;;;15.00;62.69;100927.41;5093021;28;8922;-60
2022/10/11 09:56:23;;;;;;;;;0.75;0.75;;;;;15.42;61.90;100931.09;5093351;28;8854;-59
2022/10/11 09:58:51;;;;;;;;;0.75;0.75;;;;;15.91;61.17;100934.00;5093239;28;9268;-60
2022/10/11 10:01:19;;;;;;;;;0.80;0.00;;;;;16.45;60.75;100928.25;5092750;28;8829;-59
2022/10/11 10:03:47;;;;;;;;;0.00;0.00;;;;;17.03;59.21;100927.44;5092811;28;8842;-59
2022/10/11 10:06:15;;;;;;;;;1.00;1.00;;;;;17.60;58.17;100924.81;5093061;28;8834;-60
2022/10/11 10:08:45;;;;;;;;;0.00;0.00;;;;;18.14;57.59;100921.47;5093061;28;8930;-60
2022/10/11 10:11:13;;;;;;;;;0.00;0.00;;;;;18.57;56.79;100936.09;5092047;28;8830;-60
2022/10/11 10:13:41;;;;;;;;;0.00;0.00;;;;;18.77;56.53;100932.34;5091509;28;8848;-60
2022/10/11 10:16:10;;;;;;;;;0.00;0.00;;;;;18.78;56.77;100938.56;5091139;28;8880;-61
2022/10/11 10:18:38;;;;;;;;;0.20;0.20;;;;;18.66;57.00;100931.69;5091944;28;8866;-62
2022/10/11 10:21:07;;;;;;;;;0.20;0.00;;;;;18.45;57.45;100936.44;5090744;28;8830;-62
2022/10/11 10:23:36;;;;;;;;;1.00;1.00;;;;;18.29;58.30;100933.50;5090614;28;8826;-60
2022/10/11 10:26:03;;;;;;;;;0.00;0.00;;;;;18.11;58.53;100938.78;5090683;28;8841;-60
2022/10/11 10:28:32;;;;;;;;;0.20;0.00;;;;;17.71;59.46;100935.47;5091185;28;9642;-60
2022/10/11 10:30:59;;;;;;;;;0.00;0.00;;;;;17.34;60.43;100938.94;5091216;28;8833;-60
2022/10/11 10:33:27;;;;;;;;;1.00;0.00;;;;;17.02;61.33;100941.03;5090134;28;8842;-60
2022/10/11 10:35:56;;;;;;;;;0.00;0.00;;;;;16.80;61.67;100941.25;5090131;28;8829;-61
2022/10/11 10:38:24;;;;;;;;;0.00;0.00;;;;;17.00;61.46;100943.84;5090055;28;8856;-60
2022/10/11 10:40:53;;;;;;;;;0.40;0.00;;;;;17.41;60.66;100940.13;5090533;28;8964;-61
2022/10/11 10:43:21;;;;;;;;;0.00;0.00;;;;;17.59;59.55;100946.50;5090660;28;8833;-60
2022/10/11 10:45:49;;;;;;;;;0.80;0.80;;;;;17.67;59.34;100934.03;5091253;28;8856;-61
2022/10/11 10:48:18;;;;;;;;;0.00;0.00;;;;;17.75;59.62;100942.25;5091009;28;8861;-60
2022/10/11 10:50:45;;;;;;;;;0.00;0.00;;;;;17.89;59.59;100935.56;5092107;28;8961;-60
2022/10/11 10:53:13;;;;;;;;;0.00;0.00;;;;;18.05;59.66;100930.41;5093070;28;8833;-62
2022/10/11 10:55:41;;;;;;;;;0.00;0.00;;;;;18.13;59.55;100936.78;5092168;28;8919;-61
2022/10/11 10:58:09;;;;;;;;;0.80;0.80;;;;;18.18;59.13;100933.66;5091688;28;8930;-60
2022/10/11 11:00:44;;;;;;;;;0.00;0.00;;;;;18.13;58.88;100935.97;5092805;28;8826;-61
2022/10/11 11:03:12;;;;;;;;;0.20;0.20;;;;;18.12;59.54;100935.09;5092071;28;8964;-60
2022/10/11 11:05:40;;;;;;;;;0.60;0.00;;;;;18.13;59.36;100938.66;5091353;28;8834;-60
2022/10/11 11:08:08;;;;;;;;;0.20;0.20;;;;;18.02;59.32;100936.97;5091455;28;8826;-60
2022/10/11 11:10:36;;;;;;;;;0.00;0.00;;;;;17.91;59.46;100926.34;5091408;28;8857;-60
2022/10/11 11:13:04;;;;;;;;;1.00;0.20;;;;;17.79;59.74;100930.19;5090734;28;8829;-60
2022/10/11 11:15:31;;;;;;;;;0.00;0.00;;;;;17.79;59.51;100924.81;5090459;28;8826;-60
2022/10/11 11:18:04;;;;;;;;;1.00;1.00;;;;;17.81;59.60;100924.66;5089696;28;8850;-60
2022/10/11 11:20:32;;;;;;;;;1.40;0.20;;;;;17.81;59.85;100928.19;5089783;28;8906;-62
2022/10/11 11:23:01;;;;;;;;;1.00;0.40;;;;;17.97;59.36;100930.28;5090536;28;8927;-60
2022/10/11 11:25:30;;;;;;;;;0.00;0.00;;;;;18.36;58.59;100927.38;5090154;28;8838;-61
2022/10/11 11:27:58;;;;;;;;;0.00;0.00;;;;;19.00;57.03;100920.13;5089964;28;8837;-63
2022/10/11 11:30:25;;;;;;;;;0.80;0.80;;;;;19.71;56.06;100911.03;5090560;28;8829;-61
2022/10/11 11:32:53;;;;;;;;;0.60;0.00;;;;;20.23;54.55;100910.09;5091069;28;8841;-60
2022/10/11 11:35:21;;;;;;;;;1.80;0.40;;;;;20.35;55.10;100903.44;5091309;28;8842;-60
2022/10/11 11:37:49;;;;;;;;;0.00;0.00;;;;;20.35;55.25;100907.97;5091487;28;8866;-61
2022/10/11 11:40:25;;;;;;;;;0.20;0.20;;;;;20.43;54.81;100905.31;5091747;28;8853;-60
2022/10/11 11:42:53;;;;;;;;;1.20;1.00;;;;;20.37;55.30;100901.41;5091968;28;8866;-60